Time;durP1;ratioP1;P1;durP2;ratioP2;P2;SDS_P1;SDS_P2;PMS_P1;PMS_P2;Temp;Humidity;BMP_temperature;BMP_pressure;BME280_temperature;BME280_humidity;BME280_pressure;Samples;Min_cycle;Max_cycle;Signal;HPM_P1;HPM_P2
2022/07/09 00:01:27;;;;;;;1.90;1.63;;;25.00;49.20;;;;;;5056811;28;20500;-79
2022/07/09 00:03:55;;;;;;;2.70;1.60;;;25.00;49.10;;;;;;5057117;28;20439;-78
2022/07/09 00:06:24;;;;;;;3.30;1.53;;;25.00;49.00;;;;;;5056742;28;20501;-79
2022/07/09 00:08:52;;;;;;;2.10;1.90;;;24.90;49.00;;;;;;5055866;28;20862;-78
2022/07/09 00:11:20;;;;;;;2.27;1.60;;;24.90;49.00;;;;;;5056973;28;20451;-78
2022/07/09 00:13:49;;;;;;;1.70;1.60;;;24.90;48.80;;;;;;5056140;28;20545;-79
2022/07/09 00:16:17;;;;;;;1.60;1.47;;;24.90;48.90;;;;;;5056465;28;20449;-78
2022/07/09 00:18:44;;;;;;;1.63;1.50;;;24.80;48.80;;;;;;5056264;28;20457;-78
2022/07/09 00:21:12;;;;;;;4.00;1.47;;;24.90;49.00;;;;;;5051824;28;20451;-78
2022/07/09 00:23:42;;;;;;;1.80;1.70;;;24.80;48.60;;;;;;5055895;28;20523;-78
2022/07/09 00:26:10;;;;;;;1.50;1.30;;;24.80;49.00;;;;;;5055842;28;20504;-78
2022/07/09 00:28:38;;;;;;;4.30;1.40;;;24.80;48.70;;;;;;5055952;28;21106;-78
2022/07/09 00:31:06;;;;;;;2.57;1.80;;;24.80;48.70;;;;;;5055765;28;20518;-79
2022/07/09 00:33:34;;;;;;;1.50;1.40;;;24.80;48.60;;;;;;5056116;28;20463;-78
2022/07/09 00:36:02;;;;;;;1.40;1.27;;;24.80;48.60;;;;;;5055199;28;20509;-79
2022/07/09 00:38:30;;;;;;;1.80;1.70;;;24.70;48.60;;;;;;5055053;28;20456;-79
2022/07/09 00:40:59;;;;;;;2.00;1.80;;;24.70;48.60;;;;;;5055543;28;20446;-79
2022/07/09 00:43:27;;;;;;;2.73;1.40;;;24.60;48.50;;;;;;5055891;28;20527;-78
2022/07/09 00:45:55;;;;;;;1.80;1.70;;;24.60;48.60;;;;;;5055005;28;20421;-78
2022/07/09 00:48:23;;;;;;;3.17;1.70;;;24.60;48.40;;;;;;5054859;28;20533;-79
2022/07/09 00:50:51;;;;;;;2.60;1.67;;;24.60;48.60;;;;;;5054981;28;20505;-78
2022/07/09 00:53:20;;;;;;;2.33;1.20;;;24.60;48.40;;;;;;5053871;28;20470;-78
2022/07/09 00:55:48;;;;;;;2.00;1.40;;;24.50;48.40;;;;;;5054525;28;20474;-78
2022/07/09 00:58:17;;;;;;;1.73;1.43;;;24.50;48.40;;;;;;5054933;28;20471;-79
2022/07/09 01:00:45;;;;;;;1.40;1.30;;;24.50;48.40;;;;;;5054749;28;20420;-78
2022/07/09 01:03:13;;;;;;;5.33;1.60;;;24.50;48.40;;;;;;5054232;28;20947;-78
2022/07/09 01:05:41;;;;;;;2.27;1.50;;;24.50;48.30;;;;;;5054634;28;20450;-78
2022/07/09 01:08:09;;;;;;;1.50;1.40;;;24.40;48.40;;;;;;5058571;28;20417;-78
2022/07/09 01:10:37;;;;;;;1.60;1.50;;;24.40;48.40;;;;;;5058319;28;20418;-78
2022/07/09 01:13:06;;;;;;;1.63;1.40;;;24.40;48.40;;;;;;5057862;28;20533;-78
2022/07/09 01:15:35;;;;;;;2.17;1.47;;;24.30;48.20;;;;;;5058005;28;20470;-78
2022/07/09 01:18:03;;;;;;;1.70;1.60;;;24.30;48.40;;;;;;5058084;28;20514;-79
2022/07/09 01:20:33;;;;;;;1.40;1.30;;;24.30;48.40;;;;;;5053870;28;20557;-78
2022/07/09 01:23:01;;;;;;;3.00;1.60;;;24.30;48.30;;;;;;5057391;28;20521;-78
2022/07/09 01:25:32;;;;;;;2.17;2.07;;;24.30;48.40;;;;;;5057889;28;20538;-79
2022/07/09 01:28:00;;;;;;;1.53;1.43;;;24.30;48.30;;;;;;5058320;28;20405;-79
2022/07/09 01:30:28;;;;;;;4.60;1.70;;;24.30;48.30;;;;;;5058139;28;20483;-79
2022/07/09 01:32:56;;;;;;;1.77;1.67;;;24.20;48.30;;;;;;5057947;28;20485;-79
2022/07/09 01:35:25;;;;;;;1.73;1.50;;;24.20;48.00;;;;;;5059033;28;20439;-78
2022/07/09 01:37:55;;;;;;;1.47;1.37;;;24.20;48.20;;;;;;5054909;28;20453;-79
2022/07/09 01:40:22;;;;;;;2.13;1.93;;;24.20;48.10;;;;;;5059255;28;20405;-79
2022/07/09 01:42:50;;;;;;;1.60;1.50;;;24.10;47.90;;;;;;5058358;28;20439;-78
2022/07/09 01:45:18;;;;;;;2.50;1.60;;;24.10;48.10;;;;;;5058531;28;20441;-78
2022/07/09 01:47:46;;;;;;;1.70;1.60;;;24.10;47.90;;;;;;5058290;28;20413;-79
2022/07/09 01:50:13;;;;;;;1.73;1.50;;;24.10;48.60;;;;;;5058053;28;20441;-78
2022/07/09 01:52:41;;;;;;;10.73;1.90;;;24.10;48.20;;;;;;5057803;28;20560;-79
2022/07/09 01:55:10;;;;;;;2.03;1.70;;;24.10;48.10;;;;;;5057957;28;20504;-78
2022/07/09 01:57:38;;;;;;;1.50;1.40;;;24.10;47.90;;;;;;5057585;28;20545;-78
2022/07/09 02:00:07;;;;;;;1.40;1.30;;;24.10;47.80;;;;;;5057726;28;20538;-78
2022/07/09 02:02:35;;;;;;;1.50;1.40;;;24.00;47.70;;;;;;5058045;28;20544;-78
2022/07/09 02:05:03;;;;;;;1.50;1.40;;;24.00;47.80;;;;;;5057457;28;20529;-78
2022/07/09 02:07:32;;;;;;;1.57;1.47;;;24.00;47.70;;;;;;5057380;28;20545;-79
2022/07/09 02:10:00;;;;;;;1.73;1.63;;;24.00;47.70;;;;;;5037638;28;20935;-78
2022/07/09 02:12:29;;;;;;;1.30;1.20;;;24.00;47.80;;;;;;5038091;28;20516;-78
2022/07/09 02:14:57;;;;;;;1.73;1.63;;;24.10;47.70;;;;;;5037809;28;20442;-78
2022/07/09 02:17:25;;;;;;;1.63;1.30;;;24.10;47.50;;;;;;5037003;28;20413;-78
2022/07/09 02:19:53;;;;;;;2.00;1.50;;;24.10;47.40;;;;;;5036620;28;20562;-78
2022/07/09 02:22:20;;;;;;;1.70;1.47;;;24.00;47.50;;;;;;5036440;28;20546;-79
2022/07/09 02:24:48;;;;;;;3.00;1.50;;;24.00;47.50;;;;;;5053426;28;20425;-78
2022/07/09 02:27:16;;;;;;;2.03;1.83;;;24.00;47.30;;;;;;5036803;28;20474;-78
2022/07/09 02:29:45;;;;;;;1.40;1.30;;;24.10;47.40;;;;;;5037676;28;20534;-78
2022/07/09 02:32:13;;;;;;;1.50;1.40;;;24.00;47.40;;;;;;5036703;28;20425;-78
2022/07/09 02:34:40;;;;;;;2.70;1.43;;;24.00;47.40;;;;;;5036941;28;20529;-78
2022/07/09 02:37:08;;;;;;;1.50;1.40;;;24.00;47.40;;;;;;5037053;28;20410;-78
2022/07/09 02:39:36;;;;;;;2.63;1.33;;;24.00;47.30;;;;;;5037824;28;21049;-78
2022/07/09 02:42:04;;;;;;;1.97;1.87;;;24.00;47.40;;;;;;5036928;28;20418;-79
2022/07/09 02:44:32;;;;;;;1.77;1.67;;;24.00;47.30;;;;;;5037007;28;20443;-78
2022/07/09 02:47:01;;;;;;;1.97;1.80;;;24.00;47.30;;;;;;5037305;28;20435;-78
2022/07/09 02:49:29;;;;;;;1.47;1.37;;;24.00;47.20;;;;;;5036644;28;20509;-78
2022/07/09 02:51:59;;;;;;;1.60;1.50;;;24.00;47.20;;;;;;5036976;28;20414;-78
2022/07/09 02:54:27;;;;;;;1.70;1.60;;;24.00;47.30;;;;;;5037108;28;20439;-78
2022/07/09 02:56:55;;;;;;;1.63;1.50;;;24.10;47.30;;;;;;5036613;28;20438;-78
2022/07/09 02:59:22;;;;;;;1.90;1.77;;;24.10;47.00;;;;;;5045016;28;20445;-78
2022/07/09 03:01:50;;;;;;;1.63;1.53;;;24.00;47.10;;;;;;5055299;28;20961;-78
2022/07/09 03:04:19;;;;;;;1.73;1.63;;;24.00;47.00;;;;;;5055904;28;20445;-78
2022/07/09 03:06:47;;;;;;;1.60;1.50;;;24.00;47.10;;;;;;5056226;28;20516;-78
2022/07/09 03:09:15;;;;;;;2.20;1.43;;;24.00;47.10;;;;;;5056055;28;20522;-78
2022/07/09 03:11:43;;;;;;;1.43;1.33;;;24.00;47.00;;;;;;5055785;28;20423;-78
2022/07/09 03:14:10;;;;;;;1.87;1.30;;;24.00;46.90;;;;;;5055662;28;20473;-78
2022/07/09 03:16:38;;;;;;;1.40;1.30;;;24.00;46.90;;;;;;5048725;28;20426;-79
2022/07/09 03:19:06;;;;;;;1.60;1.50;;;23.90;46.90;;;;;;5039933;28;20437;-78
2022/07/09 03:21:35;;;;;;;1.63;1.53;;;24.00;47.10;;;;;;5055870;28;20481;-78
2022/07/09 03:24:03;;;;;;;2.17;1.60;;;24.00;46.90;;;;;;5055841;28;20471;-78
2022/07/09 03:26:31;;;;;;;3.00;1.60;;;24.00;46.90;;;;;;5055686;28;20504;-78
2022/07/09 03:28:59;;;;;;;1.70;1.60;;;23.90;47.00;;;;;;5055156;28;20413;-78
2022/07/09 03:31:27;;;;;;;1.30;1.20;;;23.90;47.00;;;;;;5055553;28;20537;-78
2022/07/09 03:33:55;;;;;;;1.70;1.60;;;23.90;46.90;;;;;;5055231;28;20461;-78
2022/07/09 03:36:23;;;;;;;1.60;1.50;;;23.90;46.80;;;;;;5055345;28;20420;-77
2022/07/09 03:38:52;;;;;;;1.90;1.80;;;24.00;46.90;;;;;;5055509;28;20453;-77
2022/07/09 03:41:20;;;;;;;1.70;1.60;;;24.00;47.00;;;;;;5055419;28;20550;-77
2022/07/09 03:43:48;;;;;;;1.83;1.40;;;23.90;46.90;;;;;;5055424;28;20437;-77
2022/07/09 03:46:16;;;;;;;1.60;1.50;;;24.00;46.80;;;;;;5054215;28;20512;-77
2022/07/09 03:48:44;;;;;;;1.47;1.40;;;24.00;46.80;;;;;;5053622;28;20421;-77
2022/07/09 03:51:12;;;;;;;1.50;1.40;;;24.00;46.80;;;;;;5053148;28;20428;-77
2022/07/09 03:53:40;;;;;;;1.70;1.60;;;23.90;46.80;;;;;;5053368;28;20445;-77
2022/07/09 03:56:10;;;;;;;1.70;1.60;;;24.00;46.90;;;;;;5053381;28;20530;-77
2022/07/09 03:58:38;;;;;;;1.93;1.70;;;23.90;46.80;;;;;;5052930;28;20509;-77
2022/07/09 04:01:06;;;;;;;1.57;1.47;;;24.00;46.90;;;;;;5052965;28;20451;-77
2022/07/09 04:03:34;;;;;;;1.60;1.50;;;24.00;46.80;;;;;;5053067;28;20467;-77
2022/07/09 04:06:02;;;;;;;1.33;1.30;;;24.00;46.70;;;;;;5052709;28;20432;-77
2022/07/09 04:08:30;;;;;;;2.17;2.03;;;24.00;46.70;;;;;;5053029;28;20425;-77
2022/07/09 04:10:58;;;;;;;1.60;1.50;;;24.00;46.50;;;;;;5032942;28;20435;-77
2022/07/09 04:13:28;;;;;;;1.50;1.50;;;24.00;46.70;;;;;;5032812;28;20533;-77
2022/07/09 04:15:56;;;;;;;1.40;1.30;;;24.00;46.70;;;;;;5032831;28;20497;-77
2022/07/09 04:18:24;;;;;;;1.90;1.80;;;24.10;46.60;;;;;;5032994;28;20474;-77
2022/07/09 04:20:52;;;;;;;1.77;1.53;;;24.00;46.40;;;;;;5032764;28;20476;-77
2022/07/09 04:23:20;;;;;;;1.60;1.60;;;24.10;46.70;;;;;;5046567;28;20458;-77
2022/07/09 04:25:50;;;;;;;1.83;1.53;;;24.00;46.50;;;;;;5052751;28;20448;-77
2022/07/09 04:28:18;;;;;;;1.80;1.70;;;24.00;46.50;;;;;;5053191;28;20389;-77
2022/07/09 04:30:47;;;;;;;1.90;1.67;;;24.00;46.60;;;;;;5053731;28;20514;-77
2022/07/09 04:33:15;;;;;;;1.50;1.40;;;24.10;46.70;;;;;;5053014;28;20481;-78
2022/07/09 04:35:43;;;;;;;1.63;1.50;;;24.10;46.60;;;;;;5053963;28;20420;-77
2022/07/09 04:38:12;;;;;;;1.90;1.60;;;24.10;46.50;;;;;;5053695;28;20528;-77
2022/07/09 04:40:40;;;;;;;1.73;1.63;;;24.10;46.50;;;;;;5053141;28;20453;-78
2022/07/09 04:43:08;;;;;;;1.60;1.50;;;24.10;46.40;;;;;;5053496;28;20540;-78
2022/07/09 04:45:35;;;;;;;1.40;1.40;;;24.10;46.30;;;;;;5053831;28;20409;-78
2022/07/09 04:48:05;;;;;;;1.70;1.60;;;24.10;46.30;;;;;;5054288;28;20412;-78
2022/07/09 04:50:33;;;;;;;1.63;1.53;;;24.10;46.40;;;;;;5054087;28;20504;-78
2022/07/09 04:53:01;;;;;;;1.53;1.43;;;24.10;46.20;;;;;;5053883;28;20439;-78
2022/07/09 04:55:28;;;;;;;3.17;2.00;;;24.10;46.20;;;;;;5054034;28;20488;-78
2022/07/09 04:57:56;;;;;;;1.47;1.33;;;24.20;46.40;;;;;;5053936;28;20490;-77
2022/07/09 05:00:24;;;;;;;1.70;1.60;;;24.20;46.30;;;;;;5054176;28;20451;-77
2022/07/09 05:02:52;;;;;;;1.73;1.63;;;24.20;46.30;;;;;;5054279;28;20548;-77
2022/07/09 05:05:23;;;;;;;1.87;1.77;;;24.20;46.20;;;;;;5053965;28;20533;-78
2022/07/09 05:07:51;;;;;;;1.70;1.60;;;24.30;46.20;;;;;;5054381;28;20514;-78
2022/07/09 05:10:19;;;;;;;1.90;1.80;;;24.30;46.10;;;;;;5053989;28;20442;-78
2022/07/09 05:12:47;;;;;;;2.43;1.17;;;24.30;46.10;;;;;;5053624;28;20457;-77
2022/07/09 05:15:15;;;;;;;2.30;1.50;;;24.30;46.20;;;;;;5053964;28;20417;-77
2022/07/09 05:17:43;;;;;;;1.60;1.50;;;24.30;46.10;;;;;;5053370;28;20478;-78
2022/07/09 05:20:12;;;;;;;1.97;1.67;;;24.30;46.30;;;;;;5053330;28;20478;-77
2022/07/09 05:22:41;;;;;;;1.70;1.60;;;24.30;46.30;;;;;;5054032;28;20441;-77
2022/07/09 05:25:10;;;;;;;1.70;1.60;;;24.30;46.20;;;;;;5053705;28;20425;-78
2022/07/09 05:27:42;;;;;;;1.63;1.53;;;24.30;46.30;;;;;;5053921;28;20493;-77
2022/07/09 05:30:12;;;;;;;3.00;1.93;;;24.40;46.30;;;;;;5053585;28;20453;-78
2022/07/09 05:32:46;;;;;;;1.93;1.80;;;24.40;46.30;;;;;;5053771;28;20466;-78
2022/07/09 05:35:14;;;;;;;3.63;1.80;;;24.40;46.10;;;;;;5053712;28;20488;-77
2022/07/09 05:37:44;;;;;;;2.00;1.57;;;24.40;46.10;;;;;;5054232;28;20439;-78
2022/07/09 05:40:12;;;;;;;1.90;1.80;;;24.50;46.10;;;;;;5053584;28;20440;-78
2022/07/09 05:42:40;;;;;;;1.80;1.63;;;24.50;46.20;;;;;;5053576;28;20437;-78
2022/07/09 05:45:09;;;;;;;2.07;1.60;;;24.50;46.10;;;;;;5053442;28;20953;-78
2022/07/09 05:47:37;;;;;;;2.00;1.80;;;24.60;46.30;;;;;;5053152;28;20458;-78
2022/07/09 05:50:06;;;;;;;1.87;1.77;;;24.50;46.10;;;;;;5053607;28;20525;-78
2022/07/09 05:52:34;;;;;;;2.17;1.97;;;24.60;46.30;;;;;;5053500;28;20558;-77
2022/07/09 05:55:04;;;;;;;2.70;2.00;;;24.60;46.20;;;;;;5056379;28;20417;-77
2022/07/09 05:57:35;;;;;;;1.60;1.60;;;24.70;46.10;;;;;;5055758;28;20488;-77
2022/07/09 06:00:04;;;;;;;3.47;1.80;;;24.70;46.20;;;;;;5055575;28;20541;-77
2022/07/09 06:02:32;;;;;;;1.53;1.43;;;24.70;46.30;;;;;;5056608;28;20529;-76
2022/07/09 06:05:00;;;;;;;1.70;1.60;;;24.70;46.20;;;;;;5035182;28;20418;-76
2022/07/09 06:07:28;;;;;;;1.60;1.50;;;24.80;46.00;;;;;;5051006;28;20446;-76
2022/07/09 06:09:57;;;;;;;3.30;1.90;;;24.80;46.10;;;;;;5055359;28;20440;-76
2022/07/09 06:12:26;;;;;;;1.70;1.60;;;24.80;46.00;;;;;;5054946;28;20467;-78
2022/07/09 06:14:54;;;;;;;5.30;2.13;;;24.90;46.00;;;;;;5055948;28;20521;-78
2022/07/09 06:17:22;;;;;;;1.87;1.77;;;24.90;45.80;;;;;;5055606;28;20534;-77
2022/07/09 06:19:50;;;;;;;2.07;1.80;;;24.90;45.70;;;;;;5054704;28;20446;-77
2022/07/09 06:22:18;;;;;;;1.80;1.70;;;24.90;45.80;;;;;;5054526;28;20512;-77
2022/07/09 06:24:46;;;;;;;2.20;1.50;;;24.90;45.80;;;;;;5053561;28;20545;-76
2022/07/09 06:27:14;;;;;;;2.17;2.07;;;25.00;46.00;;;;;;5054378;28;20443;-77
2022/07/09 06:29:44;;;;;;;1.93;1.80;;;25.00;45.80;;;;;;5054756;28;20516;-76
2022/07/09 06:32:12;;;;;;;2.90;1.60;;;25.00;45.80;;;;;;5054353;28;20481;-77
2022/07/09 06:34:40;;;;;;;2.07;1.87;;;25.10;45.80;;;;;;5047377;28;20452;-77
2022/07/09 06:37:08;;;;;;;1.60;1.50;;;25.00;45.80;;;;;;5041360;28;20532;-77
2022/07/09 06:39:45;;;;;;;3.77;2.30;;;25.10;45.90;;;;;;5054574;28;20443;-77
2022/07/09 06:42:13;;;;;;;2.30;2.10;;;25.10;45.80;;;;;;5041283;28;20478;-77
2022/07/09 06:44:41;;;;;;;2.40;2.20;;;25.20;45.70;;;;;;5054292;28;20443;-77
2022/07/09 06:47:11;;;;;;;2.20;2.10;;;25.20;45.70;;;;;;5054227;28;20417;-78
2022/07/09 06:49:39;;;;;;;2.23;2.03;;;25.20;45.60;;;;;;5055455;28;20516;-78
2022/07/09 06:52:07;;;;;;;1.90;1.80;;;25.30;45.60;;;;;;5038292;28;20440;-77
2022/07/09 06:54:35;;;;;;;2.00;1.83;;;25.30;45.60;;;;;;5035165;28;20422;-77
2022/07/09 06:57:04;;;;;;;1.70;1.60;;;25.40;45.70;;;;;;5053812;28;20428;-77
2022/07/09 06:59:33;;;;;;;2.27;2.17;;;25.40;45.60;;;;;;5054193;28;20467;-77
2022/07/09 07:02:01;;;;;;;2.30;2.20;;;25.50;46.20;;;;;;5053831;28;20469;-76
2022/07/09 07:04:30;;;;;;;2.03;1.90;;;25.50;45.40;;;;;;5053795;28;20414;-77
2022/07/09 07:06:58;;;;;;;2.57;1.70;;;25.50;45.40;;;;;;5053738;28;20832;-77
2022/07/09 07:09:26;;;;;;;2.73;2.27;;;25.50;45.50;;;;;;5052721;28;20517;-77
2022/07/09 07:11:54;;;;;;;1.73;1.60;;;25.60;45.50;;;;;;5033979;28;20410;-77
2022/07/09 07:14:21;;;;;;;2.40;2.10;;;25.60;45.50;;;;;;5051302;28;20444;-77
2022/07/09 07:16:50;;;;;;;3.07;1.90;;;25.70;45.60;;;;;;5053762;28;20503;-77
2022/07/09 07:19:20;;;;;;;1.70;1.60;;;25.70;45.50;;;;;;5053944;28;20438;-77
2022/07/09 07:21:50;;;;;;;2.13;1.80;;;25.70;45.40;;;;;;5053606;28;20444;-77
2022/07/09 07:24:18;;;;;;;2.50;2.30;;;25.80;45.40;;;;;;5053817;28;20437;-77
2022/07/09 07:26:45;;;;;;;2.20;2.00;;;25.90;45.40;;;;;;5053970;28;20409;-77
2022/07/09 07:29:13;;;;;;;2.97;2.10;;;25.90;46.00;;;;;;5057182;28;20507;-79
2022/07/09 07:31:41;;;;;;;2.20;1.80;;;25.90;45.30;;;;;;5058683;28;20502;-78
2022/07/09 07:34:09;;;;;;;1.80;1.70;;;26.00;45.40;;;;;;5060847;28;20453;-80
2022/07/09 07:36:37;;;;;;;1.87;1.77;;;25.90;45.30;;;;;;5061549;28;20492;-78
2022/07/09 07:39:06;;;;;;;1.80;1.70;;;25.90;45.50;;;;;;5063079;28;20533;-80
2022/07/09 07:41:34;;;;;;;1.80;1.70;;;25.90;45.50;;;;;;5056602;28;20474;-79
2022/07/09 07:44:02;;;;;;;1.90;1.80;;;26.00;45.60;;;;;;5059224;28;20530;-79
2022/07/09 07:46:30;;;;;;;1.60;1.50;;;26.10;45.60;;;;;;5056753;28;20452;-78
2022/07/09 07:48:58;;;;;;;1.87;1.77;;;26.10;45.50;;;;;;5053514;28;20428;-78
2022/07/09 07:51:26;;;;;;;2.40;1.80;;;26.10;45.60;;;;;;5052172;28;20438;-77
2022/07/09 07:53:54;;;;;;;2.17;1.67;;;26.10;45.60;;;;;;5052222;28;20553;-77
2022/07/09 07:56:24;;;;;;;3.53;1.60;;;26.00;45.60;;;;;;5052038;28;20447;-78
2022/07/09 07:58:51;;;;;;;2.83;1.80;;;26.00;45.80;;;;;;5052194;28;20409;-77
2022/07/09 08:01:19;;;;;;;2.13;1.93;;;26.10;45.90;;;;;;5051005;28;20470;-77
2022/07/09 08:03:47;;;;;;;2.30;1.90;;;26.10;46.00;;;;;;5041514;28;20534;-77
2022/07/09 08:06:15;;;;;;;2.60;1.67;;;26.10;45.90;;;;;;5032526;28;20510;-78
2022/07/09 08:08:43;;;;;;;1.60;1.50;;;26.30;46.00;;;;;;5032051;28;20469;-77
2022/07/09 08:11:10;;;;;;;2.00;1.90;;;26.30;45.70;;;;;;5032011;28;20506;-78
2022/07/09 08:13:40;;;;;;;1.70;1.60;;;26.30;45.60;;;;;;5032091;28;20536;-77
2022/07/09 08:16:08;;;;;;;1.80;1.70;;;26.30;45.70;;;;;;5031271;28;20414;-77
2022/07/09 08:18:36;;;;;;;1.70;1.60;;;26.30;45.90;;;;;;5034259;28;20463;-78
2022/07/09 08:21:05;;;;;;;1.30;1.30;;;26.30;45.90;;;;;;5043653;28;20471;-78
2022/07/09 08:23:50;;;;;;;1.37;1.37;;;26.40;45.90;;;;;;5051734;28;20501;-77
2022/07/09 08:26:20;;;;;;;1.87;1.70;;;26.40;45.80;;;;;;5051895;28;20452;-77
2022/07/09 08:28:50;;;;;;;1.70;1.57;;;26.60;45.90;;;;;;5051568;28;20504;-78
2022/07/09 08:31:18;;;;;;;1.60;1.50;;;26.60;45.90;;;;;;5051602;28;20443;-76
2022/07/09 08:33:46;;;;;;;1.70;1.60;;;26.90;45.90;;;;;;5051418;28;20528;-78
2022/07/09 08:36:14;;;;;;;1.33;1.33;;;27.10;45.70;;;;;;5045354;28;20479;-77
2022/07/09 08:38:42;;;;;;;1.70;1.60;;;27.20;45.60;;;;;;5049821;28;20500;-77
2022/07/09 08:41:10;;;;;;;1.57;1.47;;;27.40;45.60;;;;;;5051580;28;20429;-77
2022/07/09 08:43:39;;;;;;;1.50;1.40;;;27.50;45.40;;;;;;5051455;28;20554;-78
2022/07/09 08:46:08;;;;;;;2.90;1.50;;;27.70;45.30;;;;;;5051525;28;20941;-78
2022/07/09 08:48:37;;;;;;;1.67;1.57;;;27.80;45.30;;;;;;5051519;28;20484;-78
2022/07/09 08:51:06;;;;;;;1.30;1.23;;;28.00;45.10;;;;;;5051649;28;20435;-77
2022/07/09 08:53:33;;;;;;;1.47;1.37;;;28.00;44.80;;;;;;5050862;28;20550;-77
2022/07/09 08:56:01;;;;;;;2.77;1.60;;;28.10;44.60;;;;;;5044570;28;20772;-77
2022/07/09 08:58:29;;;;;;;1.30;1.30;;;28.10;44.70;;;;;;5051437;28;20404;-77
2022/07/09 09:00:58;;;;;;;1.93;1.30;;;28.20;44.70;;;;;;5051438;28;20466;-78
2022/07/09 09:03:27;;;;;;;1.20;1.20;;;28.20;44.70;;;;;;5051595;28;20565;-77
2022/07/09 09:06:02;;;;;;;1.23;1.13;;;28.50;44.90;;;;;;5051390;28;20446;-77
2022/07/09 09:08:34;;;;;;;3.27;1.40;;;28.70;44.90;;;;;;5050626;28;20457;-77
2022/07/09 09:11:04;;;;;;;1.73;1.63;;;28.80;44.60;;;;;;5039395;28;20518;-77
2022/07/09 09:13:32;;;;;;;3.70;1.20;;;29.00;44.50;;;;;;5031375;28;20487;-78
2022/07/09 09:16:04;;;;;;;1.87;1.47;;;29.10;44.50;;;;;;5031176;28;20451;-78
2022/07/09 09:18:35;;;;;;;1.60;1.50;;;29.20;44.40;;;;;;5031580;28;20439;-78
2022/07/09 09:21:05;;;;;;;1.70;1.60;;;29.40;44.30;;;;;;5031236;28;20452;-78
2022/07/09 09:23:41;;;;;;;1.53;1.43;;;29.50;44.20;;;;;;5031867;28;20449;-78
2022/07/09 09:26:10;;;;;;;1.30;1.30;;;29.60;43.90;;;;;;5036829;28;20874;-79
2022/07/09 09:28:46;;;;;;;1.60;1.50;;;29.70;43.80;;;;;;5046874;28;20413;-78
2022/07/09 09:31:24;;;;;;;1.50;1.40;;;29.70;43.80;;;;;;5057951;28;20438;-78
2022/07/09 09:33:54;;;;;;;1.37;1.10;;;29.60;43.90;;;;;;5057185;28;20470;-78
2022/07/09 09:36:30;;;;;;;1.60;1.50;;;29.50;44.00;;;;;;5057650;28;20525;-78
2022/07/09 09:39:09;;;;;;;2.20;1.30;;;29.40;44.20;;;;;;5057477;28;20532;-78
2022/07/09 09:41:36;;;;;;;4.30;1.40;;;29.20;44.30;;;;;;5055409;28;20454;-78
2022/07/09 09:44:08;;;;;;;1.77;1.57;;;29.20;44.40;;;;;;5048029;28;20470;-78
2022/07/09 09:46:37;;;;;;;1.50;1.40;;;29.20;44.60;;;;;;5057482;28;20442;-78
2022/07/09 09:49:08;;;;;;;1.27;1.20;;;29.30;44.70;;;;;;5056824;28;20484;-78
2022/07/09 09:51:37;;;;;;;1.13;1.13;;;29.50;44.70;;;;;;5056606;28;20518;-78
2022/07/09 09:54:05;;;;;;;1.30;1.20;;;29.70;44.50;;;;;;5056227;28;20866;-78
2022/07/09 09:56:34;;;;;;;1.60;1.50;;;30.00;44.50;;;;;;5056467;28;20500;-78
2022/07/09 09:59:02;;;;;;;2.10;1.20;;;30.10;44.10;;;;;;5055880;28;20549;-78
2022/07/09 10:01:30;;;;;;;1.40;1.33;;;30.20;43.90;;;;;;5049331;28;20443;-78
2022/07/09 10:03:58;;;;;;;1.40;1.30;;;30.20;43.90;;;;;;5036854;28;20565;-78
2022/07/09 10:06:28;;;;;;;1.43;1.33;;;30.20;43.90;;;;;;5037114;28;20498;-78
2022/07/09 10:08:56;;;;;;;1.47;1.27;;;30.30;44.10;;;;;;5037110;28;20447;-78
2022/07/09 10:11:24;;;;;;;2.03;1.17;;;30.30;43.80;;;;;;5036919;28;20483;-79
2022/07/09 10:13:53;;;;;;;1.50;1.40;;;30.30;43.80;;;;;;5036363;28;20459;-78
2022/07/09 10:16:33;;;;;;;1.50;1.37;;;30.30;43.90;;;;;;5051697;28;20546;-78
2022/07/09 10:19:01;;;;;;;1.53;1.30;;;30.20;44.20;;;;;;5036389;28;20458;-78
2022/07/09 10:21:35;;;;;;;1.30;1.30;;;30.20;44.20;;;;;;5036038;28;20481;-79
2022/07/09 10:24:04;;;;;;;2.80;1.20;;;30.20;44.30;;;;;;5036994;28;20479;-79
2022/07/09 10:26:41;;;;;;;1.20;1.20;;;30.30;44.30;;;;;;5039974;28;20443;-78
2022/07/09 10:29:20;;;;;;;1.10;1.10;;;30.30;44.30;;;;;;5056535;28;20451;-78
2022/07/09 10:31:48;;;;;;;2.90;1.40;;;30.60;44.40;;;;;;5055807;28;20431;-78
2022/07/09 10:34:47;;;;;;;1.27;1.00;;;30.80;44.10;;;;;;5048632;28;20487;-78
2022/07/09 10:37:16;;;;;;;1.30;1.20;;;30.90;44.00;;;;;;5036598;28;20511;-77
2022/07/09 10:39:54;;;;;;;1.30;1.20;;;31.10;43.70;;;;;;5035890;28;20451;-78
2022/07/09 10:42:23;;;;;;;1.47;1.00;;;31.20;43.70;;;;;;5036354;28;20486;-79
2022/07/09 10:44:53;;;;;;;1.10;1.10;;;31.50;43.90;;;;;;5036404;28;20919;-78
2022/07/09 10:47:21;;;;;;;2.57;1.20;;;31.60;43.30;;;;;;5036428;28;20448;-79
2022/07/09 10:49:49;;;;;;;2.80;1.30;;;31.80;43.50;;;;;;5053433;28;20550;-78
2022/07/09 10:52:18;;;;;;;1.10;1.10;;;32.20;43.20;;;;;;5036506;28;20530;-79
2022/07/09 10:54:47;;;;;;;1.43;1.10;;;32.40;42.60;;;;;;5037149;28;20462;-79
2022/07/09 10:57:14;;;;;;;3.03;1.10;;;32.50;42.20;;;;;;5036761;28;20447;-78
2022/07/09 10:59:46;;;;;;;0.90;0.90;;;32.30;42.20;;;;;;5036958;28;20447;-78
2022/07/09 11:02:21;;;;;;;1.43;1.00;;;32.20;42.40;;;;;;5036627;28;20451;-78
2022/07/09 11:04:49;;;;;;;1.03;0.90;;;32.00;42.50;;;;;;5050513;28;20573;-79
2022/07/09 11:07:23;;;;;;;1.30;1.10;;;31.90;42.70;;;;;;5051005;28;20438;-79
2022/07/09 11:09:52;;;;;;;1.00;1.00;;;31.70;42.80;;;;;;5056301;28;20448;-79
2022/07/09 11:12:21;;;;;;;1.10;1.10;;;31.60;42.90;;;;;;5056163;28;20517;-79
2022/07/09 11:14:49;;;;;;;1.10;1.00;;;31.40;43.20;;;;;;5056336;28;20534;-78
2022/07/09 11:17:17;;;;;;;1.30;1.13;;;31.20;43.40;;;;;;5056158;28;20466;-79
2022/07/09 11:19:45;;;;;;;1.73;1.20;;;31.10;43.60;;;;;;5053215;28;20550;-79
2022/07/09 11:22:13;;;;;;;1.10;1.10;;;31.00;43.70;;;;;;5047429;28;20553;-79
2022/07/09 11:24:43;;;;;;;1.43;1.33;;;31.00;43.70;;;;;;5055870;28;20573;-78
2022/07/09 11:27:11;;;;;;;3.23;1.10;;;31.00;43.70;;;;;;5055995;28;20478;-79
2022/07/09 11:29:39;;;;;;;1.07;1.07;;;31.30;44.10;;;;;;5056177;28;20505;-79
2022/07/09 11:32:07;;;;;;;7.40;1.20;;;32.70;42.80;;;;;;5055737;28;20469;-79
2022/07/09 11:34:35;;;;;;;0.80;0.80;;;34.40;40.90;;;;;;5055563;28;20477;-79
2022/07/09 11:37:04;;;;;;;2.00;1.00;;;35.50;39.20;;;;;;5055014;28;20465;-78
2022/07/09 11:39:33;;;;;;;0.90;0.90;;;35.90;38.20;;;;;;5048837;28;20455;-79
2022/07/09 11:42:03;;;;;;;1.00;1.00;;;37.00;36.90;;;;;;5056502;28;20453;-78
2022/07/09 11:44:33;;;;;;;0.90;0.90;;;37.00;35.70;;;;;;5056192;28;20558;-79
2022/07/09 11:47:02;;;;;;;1.23;0.90;;;36.30;36.00;;;;;;5055702;28;20502;-77
2022/07/09 11:49:34;;;;;;;0.90;0.90;;;35.80;36.90;;;;;;5055923;28;20451;-79
2022/07/09 11:52:03;;;;;;;0.80;0.80;;;35.80;38.00;;;;;;5056487;28;20477;-78
2022/07/09 11:54:31;;;;;;;1.53;0.70;;;36.90;36.80;;;;;;5047737;28;20534;-79
2022/07/09 11:56:59;;;;;;;0.83;0.83;;;37.30;36.20;;;;;;5036783;28;20954;-79
2022/07/09 11:59:31;;;;;;;0.90;0.90;;;37.20;35.50;;;;;;5036986;28;20451;-78
2022/07/09 12:02:00;;;;;;;0.90;0.90;;;36.60;35.70;;;;;;5036049;28;20462;-78
2022/07/09 12:04:30;;;;;;;0.77;0.77;;;35.80;36.60;;;;;;5035827;28;20510;-78
2022/07/09 12:06:58;;;;;;;0.93;0.93;;;36.00;38.10;;;;;;5035899;28;20482;-78
2022/07/09 12:09:30;;;;;;;1.07;0.80;;;36.60;37.40;;;;;;5044063;28;20530;-78
2022/07/09 12:11:58;;;;;;;0.90;0.90;;;37.00;36.80;;;;;;5037175;28;20532;-78
2022/07/09 12:14:26;;;;;;;0.90;0.90;;;37.60;36.20;;;;;;5037257;28;20446;-78
2022/07/09 12:16:55;;;;;;;1.00;0.90;;;37.00;35.40;;;;;;5035996;28;20531;-78
2022/07/09 12:19:23;;;;;;;0.70;0.70;;;36.60;35.80;;;;;;5035670;28;20443;-78
2022/07/09 12:21:51;;;;;;;0.93;0.90;;;36.00;36.60;;;;;;5045260;28;20446;-78
2022/07/09 12:24:25;;;;;;;3.23;1.50;;;35.50;37.50;;;;;;5041096;28;20447;-82
2022/07/09 12:26:53;;;;;;;4.17;1.70;;;35.10;34.10;;;;;;5046986;28;20534;-80
2022/07/09 12:29:41;;;;;;;9.00;1.63;;;33.50;35.30;;;;;;5058380;28;20422;-78
2022/07/09 12:32:10;;;;;;;10.73;2.00;;;32.60;36.00;;;;;;5062743;28;20476;-80
2022/07/09 12:34:37;;;;;;;4.30;1.40;;;31.10;37.70;;;;;;5063843;28;20537;-81
2022/07/09 12:37:06;;;;;;;16.67;1.90;;;29.90;38.80;;;;;;5065831;28;20439;-80
2022/07/09 12:39:34;;;;;;;4.87;2.10;;;29.00;40.50;;;;;;5068764;28;20521;-82
2022/07/09 12:42:02;;;;;;;4.90;1.77;;;29.30;40.80;;;;;;5065699;28;20497;-80
2022/07/09 12:44:30;;;;;;;4.53;1.63;;;29.50;40.30;;;;;;5062434;28;20477;-79
2022/07/09 12:46:58;;;;;;;2.03;1.40;;;29.50;39.30;;;;;;5048700;28;20443;-79
2022/07/09 12:49:28;;;;;;;3.83;1.67;;;28.80;40.50;;;;;;5040399;28;20540;-79
2022/07/09 12:51:56;;;;;;;5.00;1.57;;;28.20;41.20;;;;;;5040362;28;20534;-79
2022/07/09 12:54:24;;;;;;;6.17;2.00;;;27.40;42.30;;;;;;5039584;28;20441;-78